Terminal Aerodrome Forecast
Issued by NWS

Home | Current Version | Previous Version | Text Only | Print | Product List | Glossary Off
Versions: 1 2 3 4 5 6 7 8 9 10 11 12 13 14 15 16 17 18

000
FTUS43 KICT 252109 AAA
TAFCNU
TAF AMD
KCNU 252109Z 2521/2618 35008KT P6SM VCSH FEW015 BKN090
      TEMPO 2521/2523 SCT007 BKN015
     FM252300 34007KT P6SM BKN090
     FM261200 35008KT P6SM SKC=

USA.gov is the U.S. government's official web portal to all federal, state and local government web resources and services.